createdAt,value
2018-12-16T00:01:01.620Z,-2.60
2018-12-16T00:03:30.459Z,-2.60
2018-12-16T00:05:58.737Z,-2.60
2018-12-16T00:08:27.427Z,-2.60
2018-12-16T00:10:55.822Z,-2.60
2018-12-16T00:13:24.655Z,-2.70
2018-12-16T00:15:53.301Z,-2.80
2018-12-16T00:18:21.987Z,-2.80
2018-12-16T00:20:50.356Z,-2.80
2018-12-16T00:23:18.707Z,-2.90
2018-12-16T00:25:47.250Z,-2.90
2018-12-16T00:28:15.878Z,-2.90
2018-12-16T00:30:44.249Z,-2.90
2018-12-16T00:33:12.796Z,-3.00
2018-12-16T00:35:41.117Z,-3.00
2018-12-16T00:38:10.447Z,-2.90
2018-12-16T00:40:38.782Z,-3.00
2018-12-16T00:43:07.259Z,-3.00
2018-12-16T00:45:35.671Z,-3.10
2018-12-16T00:48:04.793Z,-3.10
2018-12-16T00:50:33.269Z,-3.20
2018-12-16T00:53:01.609Z,-3.20
2018-12-16T00:55:30.179Z,-3.20
2018-12-16T00:57:58.497Z,-3.10
2018-12-16T01:00:26.943Z,-3.10
2018-12-16T01:02:55.328Z,-3.10
2018-12-16T01:05:23.644Z,-3.10
2018-12-16T01:07:52.234Z,-3.00
2018-12-16T01:10:20.637Z,-3.00
2018-12-16T01:12:49.152Z,-2.90
2018-12-16T01:15:17.479Z,-3.00
2018-12-16T01:17:45.788Z,-3.10
2018-12-16T01:20:14.465Z,-3.20
2018-12-16T01:22:43.567Z,-3.20
2018-12-16T01:25:12.492Z,-3.20
2018-12-16T01:27:41.266Z,-3.10
2018-12-16T01:30:10.593Z,-3.10
2018-12-16T01:32:39.272Z,-3.00
2018-12-16T01:35:07.632Z,-2.90
2018-12-16T01:37:36.308Z,-2.90
2018-12-16T01:40:06.696Z,-3.00
2018-12-16T01:42:35.242Z,-2.90
2018-12-16T01:45:03.565Z,-2.90
2018-12-16T01:47:31.834Z,-2.90
2018-12-16T01:50:00.560Z,-2.90
2018-12-16T01:52:28.839Z,-3.00
2018-12-16T01:54:57.366Z,-3.00
2018-12-16T01:57:25.665Z,-3.00
2018-12-16T01:59:54.102Z,-3.00
2018-12-16T02:02:22.669Z,-3.00
2018-12-16T02:04:51.367Z,-3.00
2018-12-16T02:07:19.642Z,-2.90
2018-12-16T02:09:47.960Z,-3.00
2018-12-16T02:12:16.584Z,-3.10
2018-12-16T02:14:45.070Z,-3.00
2018-12-16T02:17:14.080Z,-3.00
2018-12-16T02:19:42.364Z,-3.10
2018-12-16T02:22:10.692Z,-3.10
2018-12-16T02:24:38.978Z,-3.00
2018-12-16T02:27:07.397Z,-3.00
2018-12-16T02:29:35.703Z,-2.90
2018-12-16T02:32:04.049Z,-2.90
2018-12-16T02:34:32.451Z,-2.80
2018-12-16T02:37:00.780Z,-2.90
2018-12-16T02:39:29.295Z,-2.80
2018-12-16T02:41:57.604Z,-2.80
2018-12-16T02:44:25.957Z,-2.80
2018-12-16T02:46:54.386Z,-2.80
2018-12-16T02:49:22.738Z,-2.80
2018-12-16T02:51:51.067Z,-2.70
2018-12-16T02:54:19.731Z,-2.70
2018-12-16T02:56:48.138Z,-2.60
2018-12-16T02:59:16.561Z,-2.60
2018-12-16T03:01:46.637Z,-2.60
2018-12-16T03:04:15.006Z,-2.60
2018-12-16T03:06:43.385Z,-2.50
2018-12-16T03:09:12.797Z,-2.50
2018-12-16T03:11:41.517Z,-2.60
2018-12-16T03:14:10.649Z,-2.60
2018-12-16T03:16:39.059Z,-2.60
2018-12-16T03:19:07.521Z,-2.70
2018-12-16T03:21:35.937Z,-2.70
2018-12-16T03:24:04.464Z,-2.70
2018-12-16T03:26:36.189Z,-2.70
2018-12-16T03:29:03.553Z,-2.70
2018-12-16T03:31:32.048Z,-2.70
2018-12-16T03:34:00.444Z,-2.60
2018-12-16T03:36:28.758Z,-2.60
2018-12-16T03:38:57.052Z,-2.60
2018-12-16T03:41:25.554Z,-2.60
2018-12-16T03:43:53.835Z,-2.50
2018-12-16T03:46:22.553Z,-2.60
2018-12-16T03:48:51.562Z,-1.00
2018-12-16T03:51:19.838Z,-2.50
2018-12-16T03:53:48.495Z,-2.40
2018-12-16T03:56:16.772Z,-2.40
2018-12-16T03:58:56.536Z,-2.40
2018-12-16T04:01:24.820Z,-2.40
2018-12-16T04:03:53.384Z,-2.40
2018-12-16T04:06:21.683Z,-2.50
2018-12-16T04:08:50.055Z,-2.50
2018-12-16T04:11:18.659Z,-2.60
2018-12-16T04:13:46.965Z,-2.60
2018-12-16T04:16:15.635Z,-2.60
2018-12-16T04:18:43.930Z,-2.50
2018-12-16T04:21:12.535Z,-2.50
2018-12-16T04:23:40.913Z,-2.50
2018-12-16T04:26:10.121Z,-2.50
2018-12-16T04:28:38.752Z,-2.60
2018-12-16T04:31:07.048Z,-2.60
2018-12-16T04:33:35.510Z,-2.60
2018-12-16T04:36:03.817Z,-2.60
2018-12-16T04:38:32.191Z,-2.70
2018-12-16T04:41:00.566Z,-2.90
2018-12-16T04:43:29.500Z,-2.90
2018-12-16T04:45:57.807Z,-2.80
2018-12-16T04:48:26.283Z,-2.80
2018-12-16T04:50:54.645Z,-2.80
2018-12-16T04:53:22.943Z,-2.70
2018-12-16T04:55:51.473Z,-2.70
2018-12-16T04:58:19.774Z,-2.70
2018-12-16T05:00:48.055Z,-2.80
2018-12-16T05:03:16.676Z,-2.80
2018-12-16T05:05:45.153Z,-2.80
2018-12-16T05:08:13.831Z,-2.80
2018-12-16T05:10:42.132Z,-2.70
2018-12-16T05:13:10.846Z,-2.70
2018-12-16T05:15:39.601Z,-2.70
2018-12-16T05:18:07.975Z,-2.80
2018-12-16T05:20:36.648Z,-2.70
2018-12-16T05:23:05.020Z,-2.60
2018-12-16T05:25:33.604Z,-2.60
2018-12-16T05:28:02.061Z,-2.60
2018-12-16T05:30:30.423Z,-2.60
2018-12-16T05:32:58.811Z,-2.60
2018-12-16T05:35:27.116Z,-2.60
2018-12-16T05:37:55.598Z,-2.50
2018-12-16T05:40:24.277Z,-2.60
2018-12-16T05:42:52.662Z,-2.70
2018-12-16T05:45:20.973Z,-2.60
2018-12-16T05:47:49.249Z,-2.60
2018-12-16T05:50:18.145Z,-2.60
2018-12-16T05:52:46.778Z,-2.60
2018-12-16T05:55:15.080Z,-2.50
2018-12-16T05:57:43.604Z,-2.50
2018-12-16T06:00:12.046Z,-2.60
2018-12-16T06:02:40.608Z,-2.50
2018-12-16T06:05:08.978Z,-2.60
2018-12-16T06:07:37.254Z,-2.70
2018-12-16T06:10:06.416Z,-2.60
2018-12-16T06:12:34.692Z,-2.60
2018-12-16T06:15:03.029Z,-2.60
2018-12-16T06:17:31.754Z,-2.50
2018-12-16T06:20:00.163Z,-2.50
2018-12-16T06:22:28.740Z,-2.40
2018-12-16T06:24:57.033Z,-2.30
2018-12-16T06:27:25.389Z,-2.30
2018-12-16T06:29:53.950Z,-2.30
2018-12-16T06:32:22.264Z,-2.30
2018-12-16T06:34:50.833Z,-2.20
2018-12-16T06:37:19.101Z,-2.20
2018-12-16T06:39:47.690Z,-2.10
2018-12-16T06:42:15.959Z,-2.20
2018-12-16T06:44:44.338Z,-2.10
2018-12-16T06:47:12.882Z,-2.10
2018-12-16T06:49:41.270Z,-2.20
2018-12-16T06:52:10.661Z,-2.10
2018-12-16T06:54:39.044Z,-2.20
2018-12-16T06:57:07.353Z,-2.30
2018-12-16T06:59:35.896Z,-2.20
2018-12-16T07:02:04.272Z,-2.20
2018-12-16T07:04:32.685Z,-2.20
2018-12-16T07:07:01.081Z,-2.20
2018-12-16T07:09:29.717Z,-2.20
2018-12-16T07:11:58.107Z,-2.10
2018-12-16T07:14:26.399Z,-2.20
2018-12-16T07:16:54.889Z,-2.10
2018-12-16T07:19:23.226Z,-2.20
2018-12-16T07:21:51.990Z,-2.20
2018-12-16T07:24:20.812Z,-2.10
2018-12-16T07:26:49.413Z,-2.10
2018-12-16T07:29:17.988Z,-2.00
2018-12-16T07:31:46.278Z,-2.00
2018-12-16T07:34:15.065Z,-1.90
2018-12-16T07:36:43.444Z,-1.80
2018-12-16T07:39:11.996Z,-1.90
2018-12-16T07:41:40.417Z,-1.90
2018-12-16T07:44:08.909Z,-1.80
2018-12-16T07:46:37.321Z,-1.70
2018-12-16T07:49:05.853Z,-1.60
2018-12-16T07:51:34.152Z,-1.50
2018-12-16T07:54:02.446Z,-1.40
2018-12-16T07:56:30.948Z,-1.30
2018-12-16T07:58:59.294Z,-1.30
2018-12-16T08:01:28.100Z,-1.30
2018-12-16T08:03:56.623Z,-1.40
2018-12-16T08:06:25.157Z,-1.40
2018-12-16T08:08:54.058Z,-1.40
2018-12-16T08:11:22.381Z,-1.40
2018-12-16T08:13:50.861Z,-1.40
2018-12-16T08:16:19.212Z,-1.40
2018-12-16T08:18:47.504Z,-1.30
2018-12-16T08:23:51.043Z,-1.10
2018-12-16T08:26:19.427Z,-1.00
2018-12-16T08:28:48.053Z,-1.00
2018-12-16T08:31:16.341Z,-1.00
2018-12-16T08:33:44.905Z,-0.90
2018-12-16T08:36:13.184Z,-0.80
2018-12-16T08:38:41.563Z,-0.80
2018-12-16T08:41:11.167Z,-0.80
2018-12-16T08:43:39.545Z,-0.80
2018-12-16T08:46:08.021Z,-0.90
2018-12-16T08:48:36.453Z,-0.90
2018-12-16T08:51:05.303Z,-0.90
2018-12-16T08:53:33.976Z,-0.80
2018-12-16T08:56:02.330Z,-0.80
2018-12-16T08:58:30.790Z,-0.90
2018-12-16T09:00:59.152Z,-0.90
2018-12-16T09:03:27.532Z,-1.00
2018-12-16T09:05:55.968Z,-1.00
2018-12-16T09:08:24.351Z,-1.00
2018-12-16T09:10:52.635Z,-0.90
2018-12-16T09:13:21.231Z,-0.80
2018-12-16T09:15:49.589Z,-0.70
2018-12-16T09:18:18.929Z,-0.70
2018-12-16T09:20:47.331Z,-0.60
2018-12-16T09:23:15.650Z,-0.50
2018-12-16T09:25:43.964Z,-0.50
2018-12-16T09:28:12.655Z,-0.40
2018-12-16T09:30:41.116Z,-0.40
2018-12-16T09:33:09.598Z,-0.50
2018-12-16T09:35:38.032Z,-0.40
2018-12-16T09:38:06.448Z,1.60
2018-12-16T09:40:34.954Z,-0.40
2018-12-16T09:43:03.300Z,-0.30
2018-12-16T09:45:31.668Z,-0.30
2018-12-16T09:48:00.361Z,-0.20
2018-12-16T09:50:28.637Z,-0.20
2018-12-16T09:52:57.218Z,-0.40
2018-12-16T09:55:25.563Z,-0.40
2018-12-16T09:57:54.212Z,-0.30
2018-12-16T10:00:22.520Z,-0.20
2018-12-16T10:02:51.126Z,-0.30
2018-12-16T10:05:19.436Z,-0.30
2018-12-16T10:07:48.136Z,-0.10
2018-12-16T10:10:21.532Z,-0.10
2018-12-16T10:12:50.885Z,0.00
2018-12-16T10:15:19.584Z,0.10
2018-12-16T10:17:48.105Z,0.20
2018-12-16T10:20:16.420Z,0.20
2018-12-16T10:22:44.784Z,0.20
2018-12-16T10:25:13.372Z,0.20
2018-12-16T10:27:41.656Z,0.20
2018-12-16T10:30:11.369Z,0.10
2018-12-16T10:32:39.695Z,0.10
2018-12-16T10:35:08.142Z,0.00
2018-12-16T10:37:36.413Z,0.10
2018-12-16T10:40:06.195Z,-0.10
2018-12-16T10:42:34.565Z,0.00
2018-12-16T10:45:03.152Z,0.00
2018-12-16T10:47:31.493Z,0.00
2018-12-16T10:50:00.052Z,0.00
2018-12-16T10:52:28.473Z,0.00
2018-12-16T10:54:58.643Z,0.10
2018-12-16T10:57:27.366Z,0.20
2018-12-16T10:59:55.738Z,0.20
2018-12-16T11:02:24.345Z,0.20
2018-12-16T11:04:52.774Z,0.30
2018-12-16T11:07:21.422Z,0.50
2018-12-16T11:09:49.725Z,0.50
2018-12-16T11:12:20.595Z,0.70
2018-12-16T11:14:49.220Z,0.70
2018-12-16T11:17:17.549Z,0.80
2018-12-16T11:19:45.860Z,1.00
2018-12-16T11:22:14.423Z,1.00
2018-12-16T11:24:43.647Z,1.10
2018-12-16T11:27:12.254Z,1.20
2018-12-16T11:29:40.528Z,1.40
2018-12-16T11:32:08.805Z,1.40
2018-12-16T11:34:37.195Z,1.40
2018-12-16T11:37:05.497Z,1.30
2018-12-16T11:39:33.771Z,1.20
2018-12-16T11:42:02.368Z,1.10
2018-12-16T11:44:30.675Z,1.20
2018-12-16T11:46:59.254Z,1.20
2018-12-16T11:49:27.536Z,1.30
2018-12-16T11:51:59.358Z,1.40
2018-12-16T11:54:27.913Z,1.30
2018-12-16T11:56:56.268Z,1.20
2018-12-16T11:59:24.581Z,1.30
2018-12-16T12:01:53.545Z,1.40
2018-12-16T12:04:22.170Z,1.30
2018-12-16T12:06:50.658Z,1.20
2018-12-16T12:09:19.266Z,1.10
2018-12-16T12:11:47.593Z,1.10
2018-12-16T12:14:16.017Z,1.10
2018-12-16T12:16:44.401Z,1.20
2018-12-16T12:19:13.323Z,1.40
2018-12-16T12:21:41.621Z,1.40
2018-12-16T12:24:10.863Z,1.50
2018-12-16T12:26:39.505Z,1.50
2018-12-16T12:29:07.790Z,1.50
2018-12-16T12:31:36.353Z,1.50
2018-12-16T12:34:04.671Z,1.80
2018-12-16T12:36:33.388Z,1.70
2018-12-16T12:39:01.726Z,1.70
2018-12-16T12:41:30.312Z,1.80
2018-12-16T12:43:58.712Z,1.70
2018-12-16T12:46:27.419Z,1.50
2018-12-16T12:48:55.881Z,1.60
2018-12-16T12:51:24.590Z,1.50
2018-12-16T12:53:53.742Z,1.40
2018-12-16T12:56:22.739Z,1.50
2018-12-16T12:58:51.556Z,1.50
2018-12-16T13:01:20.051Z,1.70
2018-12-16T13:03:48.859Z,1.80
2018-12-16T13:06:17.683Z,1.50
2018-12-16T13:08:46.068Z,1.60
2018-12-16T13:11:14.778Z,1.60
2018-12-16T13:13:43.152Z,1.70
2018-12-16T13:16:11.836Z,1.60
2018-12-16T13:18:44.589Z,1.40
2018-12-16T13:21:13.195Z,1.40
2018-12-16T13:23:41.526Z,1.40
2018-12-16T13:26:10.787Z,1.50
2018-12-16T13:28:39.528Z,1.50
2018-12-16T13:31:07.894Z,1.50
2018-12-16T13:33:36.466Z,1.40
2018-12-16T13:36:04.860Z,1.50
2018-12-16T13:38:33.431Z,1.50
2018-12-16T13:41:01.894Z,1.70
2018-12-16T13:43:30.640Z,1.70
2018-12-16T13:45:59.231Z,1.80
2018-12-16T13:48:27.637Z,1.80
2018-12-16T13:50:55.957Z,1.80
2018-12-16T13:53:25.885Z,1.90
2018-12-16T13:55:54.621Z,1.80
2018-12-16T13:58:23.240Z,1.80
2018-12-16T14:00:51.578Z,1.70
2018-12-16T14:03:19.976Z,1.70
2018-12-16T14:05:48.416Z,1.80
2018-12-16T14:08:16.734Z,1.80
2018-12-16T14:10:46.012Z,1.80
2018-12-16T14:13:14.777Z,1.70
2018-12-16T14:15:43.157Z,1.80
2018-12-16T14:18:11.825Z,1.90
2018-12-16T14:20:40.566Z,2.30
2018-12-16T14:23:08.893Z,2.40
2018-12-16T14:25:37.558Z,2.60
2018-12-16T14:28:05.855Z,2.40
2018-12-16T14:30:34.429Z,2.10
2018-12-16T14:33:02.725Z,2.00
2018-12-16T14:35:31.330Z,2.00
2018-12-16T14:37:59.928Z,1.90
2018-12-16T14:40:28.630Z,2.00
2018-12-16T14:42:56.948Z,2.00
2018-12-16T14:45:25.597Z,2.10
2018-12-16T14:47:53.924Z,2.10
2018-12-16T14:50:22.601Z,2.10
2018-12-16T14:52:50.889Z,2.20
2018-12-16T14:55:19.787Z,2.20
2018-12-16T14:57:48.071Z,2.30
2018-12-16T15:00:16.687Z,2.30
2018-12-16T15:02:45.130Z,2.40
2018-12-16T15:05:13.833Z,2.40
2018-12-16T15:07:42.110Z,2.50
2018-12-16T15:10:11.791Z,2.50
2018-12-16T15:12:40.136Z,2.50
2018-12-16T15:15:08.711Z,2.50
2018-12-16T15:17:42.631Z,2.50
2018-12-16T15:20:07.652Z,2.50
2018-12-16T15:22:35.943Z,2.60
2018-12-16T15:25:05.013Z,2.60
2018-12-16T15:27:33.578Z,2.60
2018-12-16T15:30:01.876Z,2.70
2018-12-16T15:32:30.215Z,2.70
2018-12-16T15:34:58.599Z,2.70
2018-12-16T15:37:26.885Z,2.70
2018-12-16T15:39:55.247Z,2.70
2018-12-16T15:42:23.913Z,2.80
2018-12-16T15:44:52.726Z,2.80
2018-12-16T15:47:21.173Z,2.80
2018-12-16T15:49:49.527Z,2.80
2018-12-16T15:52:17.898Z,2.90
2018-12-16T15:54:46.307Z,3.10
2018-12-16T15:57:14.885Z,3.20
2018-12-16T15:59:43.257Z,3.20
2018-12-16T16:02:11.934Z,3.30
2018-12-16T16:04:40.369Z,3.30
2018-12-16T16:07:08.724Z,3.40
2018-12-16T16:09:37.046Z,3.40
2018-12-16T16:12:05.600Z,3.50
2018-12-16T16:14:34.070Z,3.50
2018-12-16T16:17:02.634Z,3.50
2018-12-16T16:19:31.479Z,3.60
2018-12-16T16:21:59.793Z,3.60
2018-12-16T16:24:28.058Z,3.60
2018-12-16T16:26:57.013Z,3.60
2018-12-16T16:29:25.703Z,3.70
2018-12-16T16:31:53.981Z,3.80
2018-12-16T16:34:22.465Z,3.80
2018-12-16T16:36:50.917Z,3.80
2018-12-16T16:39:19.260Z,3.80
2018-12-16T16:41:47.702Z,3.90
2018-12-16T16:44:16.031Z,3.90
2018-12-16T16:46:44.400Z,3.90
2018-12-16T16:49:12.894Z,3.80
2018-12-16T16:51:41.544Z,3.80
2018-12-16T16:54:09.858Z,3.80
2018-12-16T16:56:38.254Z,3.80
2018-12-16T16:59:06.717Z,3.80
2018-12-16T17:01:35.092Z,3.80
2018-12-16T17:04:03.745Z,3.70
2018-12-16T17:06:32.073Z,3.80
2018-12-16T17:09:00.402Z,3.80
2018-12-16T17:11:29.551Z,3.70
2018-12-16T17:13:59.193Z,3.70
2018-12-16T17:16:27.821Z,3.70
2018-12-16T17:18:57.617Z,3.70
2018-12-16T17:21:26.463Z,3.70
2018-12-16T17:23:54.847Z,3.70
2018-12-16T17:26:29.876Z,3.70
2018-12-16T17:28:54.701Z,3.70
2018-12-16T17:31:23.057Z,3.70
2018-12-16T17:33:51.364Z,3.70
2018-12-16T17:36:19.964Z,3.70
2018-12-16T17:38:48.318Z,3.70
2018-12-16T17:41:17.914Z,3.70
2018-12-16T17:43:47.156Z,3.70
2018-12-16T17:46:17.981Z,3.70
2018-12-16T17:48:46.290Z,3.70
2018-12-16T17:51:14.886Z,3.70
2018-12-16T17:53:43.403Z,3.70
2018-12-16T17:56:13.432Z,3.70
2018-12-16T17:58:41.876Z,3.70
2018-12-16T18:01:11.616Z,3.70
2018-12-16T18:03:39.986Z,3.80
2018-12-16T18:06:08.350Z,3.80
2018-12-16T18:08:36.779Z,3.80
2018-12-16T18:11:05.052Z,3.80
2018-12-16T18:13:33.410Z,3.90
2018-12-16T18:16:01.709Z,3.90
2018-12-16T18:18:30.022Z,3.90
2018-12-16T18:20:58.319Z,4.00
2018-12-16T18:23:29.837Z,4.00
2018-12-16T18:25:57.385Z,4.00
2018-12-16T18:28:26.013Z,4.00
2018-12-16T18:30:54.284Z,4.00
2018-12-16T18:33:22.952Z,4.00
2018-12-16T18:35:51.281Z,4.00
2018-12-16T18:38:19.855Z,4.00
2018-12-16T18:40:48.207Z,4.00
2018-12-16T18:43:16.778Z,3.90
2018-12-16T18:45:45.048Z,3.90
2018-12-16T18:48:13.401Z,3.90
2018-12-16T18:50:41.833Z,3.90
2018-12-16T18:53:10.152Z,3.90
2018-12-16T18:55:38.424Z,3.90
2018-12-16T18:58:07.359Z,3.90
2018-12-16T19:00:35.795Z,3.90
2018-12-16T19:03:04.092Z,3.90
2018-12-16T19:05:32.893Z,3.90
2018-12-16T19:08:01.261Z,3.80
2018-12-16T19:10:29.814Z,3.70
2018-12-16T19:12:58.086Z,3.70
2018-12-16T19:15:26.582Z,3.70
2018-12-16T19:17:54.929Z,3.60
2018-12-16T19:20:23.248Z,3.50
2018-12-16T19:22:51.731Z,3.50
2018-12-16T19:25:20.076Z,3.40
2018-12-16T19:27:48.349Z,3.40
2018-12-16T19:30:16.924Z,3.30
2018-12-16T19:32:45.213Z,3.20
2018-12-16T19:35:14.089Z,3.20
2018-12-16T19:37:42.409Z,3.10
2018-12-16T19:40:12.309Z,3.10
2018-12-16T19:42:41.060Z,3.10
2018-12-16T19:45:09.432Z,3.10
2018-12-16T19:47:37.973Z,3.10
2018-12-16T19:50:07.590Z,3.10
2018-12-16T19:52:35.992Z,3.10
2018-12-16T19:55:04.900Z,3.10
2018-12-16T19:57:33.180Z,3.00
2018-12-16T20:00:01.503Z,3.00
2018-12-16T20:02:30.132Z,3.00
2018-12-16T20:05:04.123Z,2.90
2018-12-16T20:07:33.106Z,2.90
2018-12-16T20:10:01.602Z,2.90
2018-12-16T20:12:30.346Z,2.90
2018-12-16T20:14:58.942Z,2.90
2018-12-16T20:17:27.360Z,2.90
2018-12-16T20:19:55.764Z,2.90
2018-12-16T20:22:24.173Z,2.90
2018-12-16T20:24:52.532Z,2.90
2018-12-16T20:27:21.405Z,2.90
2018-12-16T20:29:49.981Z,2.90
2018-12-16T20:32:18.285Z,2.90
2018-12-16T20:34:46.729Z,2.90
2018-12-16T20:37:15.194Z,2.90
2018-12-16T20:39:43.508Z,2.90
2018-12-16T20:42:12.288Z,2.90
2018-12-16T20:44:40.780Z,3.00
2018-12-16T20:47:09.066Z,3.00
2018-12-16T20:49:37.386Z,3.00
2018-12-16T20:52:05.714Z,3.10
2018-12-16T20:54:34.123Z,3.10
2018-12-16T20:57:02.457Z,3.10
2018-12-16T20:59:31.013Z,3.20
2018-12-16T21:01:59.427Z,3.20
2018-12-16T21:04:28.098Z,3.20
2018-12-16T21:06:56.537Z,3.20
2018-12-16T21:09:26.090Z,3.20
2018-12-16T21:12:00.490Z,3.20
2018-12-16T21:14:34.988Z,3.30
2018-12-16T21:17:08.957Z,3.30
2018-12-16T21:19:37.357Z,3.30
2018-12-16T21:22:09.340Z,3.30
2018-12-16T21:24:37.808Z,3.30
2018-12-16T21:27:06.692Z,3.40
2018-12-16T21:29:35.190Z,3.40
2018-12-16T21:32:03.614Z,3.40
2018-12-16T21:34:32.152Z,3.40
2018-12-16T21:37:01.615Z,3.40
2018-12-16T21:39:30.298Z,3.40
2018-12-16T21:41:58.633Z,3.40
2018-12-16T21:44:27.253Z,3.40
2018-12-16T21:46:55.597Z,3.40
2018-12-16T21:49:24.193Z,3.30
2018-12-16T21:51:52.489Z,3.20
2018-12-16T21:54:20.837Z,3.20
2018-12-16T21:56:49.308Z,3.20
2018-12-16T21:59:17.586Z,3.10
2018-12-16T22:01:46.266Z,3.10
2018-12-16T22:04:14.535Z,3.00
2018-12-16T22:06:43.119Z,3.00
2018-12-16T22:09:12.360Z,2.90
2018-12-16T22:11:40.676Z,2.90
2018-12-16T22:14:09.211Z,2.90
2018-12-16T22:16:37.561Z,2.80
2018-12-16T22:19:06.092Z,2.80
2018-12-16T22:21:34.439Z,2.80
2018-12-16T22:24:02.714Z,2.70
2018-12-16T22:26:31.279Z,2.70
2018-12-16T22:28:59.651Z,2.60
2018-12-16T22:31:28.250Z,2.50
2018-12-16T22:33:56.530Z,2.40
2018-12-16T22:36:24.995Z,2.30
2018-12-16T22:38:53.288Z,2.30
2018-12-16T22:41:21.818Z,2.20
2018-12-16T22:43:50.393Z,2.20
2018-12-16T22:46:19.085Z,2.10
2018-12-16T22:48:47.489Z,2.00
2018-12-16T22:51:16.320Z,2.00
2018-12-16T22:53:44.609Z,2.00
2018-12-16T22:56:13.236Z,1.90
2018-12-16T22:58:41.540Z,1.90
2018-12-16T23:01:17.107Z,1.90
2018-12-16T23:03:45.425Z,1.80
2018-12-16T23:06:13.985Z,1.80
2018-12-16T23:08:42.389Z,1.80
2018-12-16T23:11:10.669Z,1.70
2018-12-16T23:13:39.215Z,1.70
2018-12-16T23:16:07.554Z,1.60
2018-12-16T23:18:35.912Z,1.60
2018-12-16T23:21:04.370Z,1.60
2018-12-16T23:23:32.663Z,1.70
2018-12-16T23:26:01.342Z,1.70
2018-12-16T23:28:29.969Z,1.70
2018-12-16T23:30:58.447Z,1.80
2018-12-16T23:33:26.778Z,1.80
2018-12-16T23:35:55.300Z,1.80
2018-12-16T23:38:23.630Z,1.80
2018-12-16T23:40:51.896Z,1.80
2018-12-16T23:43:20.555Z,1.90
2018-12-16T23:45:48.833Z,1.90
2018-12-16T23:48:17.517Z,1.90
2018-12-16T23:50:45.779Z,2.00
2018-12-16T23:53:14.399Z,2.00
2018-12-16T23:55:43.183Z,1.90
2018-12-16T23:58:12.693Z,1.90
